Time;durP1;ratioP1;P1;durP2;ratioP2;P2;SDS_P1;SDS_P2;PMS_P1;PMS_P2;Temp;Humidity;BMP_temperature;BMP_pressure;BME280_temperature;BME280_humidity;BME280_pressure;Samples;Min_cycle;Max_cycle;Signal;HPM_P1;HPM_P2
2023/10/21 00:01:25;;;;;;;0.38;0.38;;;;;;;;;;5084092;28;20032;-85
2023/10/21 00:03:50;;;;;;;0.50;0.50;;;;;;;;;;5083269;28;20450;-83
2023/10/21 00:06:15;;;;;;;0.75;0.65;;;;;;;;;;5077933;28;20024;-84
2023/10/21 00:08:41;;;;;;;0.68;0.57;;;;;;;;;;5080579;28;20055;-84
2023/10/21 00:11:09;;;;;;;0.77;0.40;;;;;;;;;;5077283;28;20032;-84
2023/10/21 00:13:35;;;;;;;0.20;0.20;;;;;;;;;;5079907;28;20020;-84
2023/10/21 00:16:01;;;;;;;0.35;0.32;;;;;;;;;;5084236;28;20036;-85
2023/10/21 00:18:27;;;;;;;0.40;0.40;;;;;;;;;;5073189;28;20036;-84
2023/10/21 00:20:53;;;;;;;0.13;0.13;;;;;;;;;;5077730;28;20364;-85
2023/10/21 00:23:20;;;;;;;0.63;0.20;;;;;;;;;;5075785;28;20031;-84
2023/10/21 00:25:45;;;;;;;0.70;0.45;;;;;;;;;;5078417;28;20388;-85
2023/10/21 00:28:10;;;;;;;0.22;0.22;;;;;;;;;;5081133;28;20834;-83
2023/10/21 00:30:36;;;;;;;0.40;0.40;;;;;;;;;;5072664;28;20063;-83
2023/10/21 00:33:01;;;;;;;0.43;0.43;;;;;;;;;;5075519;28;20552;-83
2023/10/21 00:35:26;;;;;;;0.70;0.70;;;;;;;;;;5077607;28;20464;-83
2023/10/21 00:37:52;;;;;;;0.30;0.30;;;;;;;;;;5076954;28;20075;-83
2023/10/21 00:40:17;;;;;;;0.45;0.30;;;;;;;;;;5076331;28;20060;-83
2023/10/21 00:42:42;;;;;;;1.65;0.40;;;;;;;;;;5076816;28;20025;-84
2023/10/21 00:45:08;;;;;;;1.02;0.32;;;;;;;;;;5079893;28;20372;-84
2023/10/21 00:47:34;;;;;;;0.20;0.20;;;;;;;;;;5077251;28;20560;-83
2023/10/21 00:50:01;;;;;;;0.30;0.30;;;;;;;;;;5076688;28;20029;-83
2023/10/21 00:52:27;;;;;;;0.20;0.20;;;;;;;;;;5070963;28;20040;-83
2023/10/21 00:54:55;;;;;;;0.30;0.30;;;;;;;;;;5070311;28;20028;-83
2023/10/21 00:57:20;;;;;;;0.10;0.10;;;;;;;;;;5073207;28;20514;-83
2023/10/21 00:59:46;;;;;;;0.38;0.38;;;;;;;;;;5076879;28;20036;-83
2023/10/21 01:02:12;;;;;;;0.15;0.15;;;;;;;;;;5070521;28;20028;-84
2023/10/21 01:04:38;;;;;;;0.57;0.43;;;;;;;;;;5076003;28;20093;-83
2023/10/21 01:07:03;;;;;;;0.13;0.13;;;;;;;;;;5076637;28;20422;-83
2023/10/21 01:09:30;;;;;;;0.52;0.30;;;;;;;;;;5077099;28;20111;-83
2023/10/21 01:11:55;;;;;;;0.10;0.10;;;;;;;;;;5075428;28;20107;-83
2023/10/21 01:14:20;;;;;;;0.10;0.10;;;;;;;;;;5079305;28;20474;-83
2023/10/21 01:16:46;;;;;;;1.13;0.43;;;;;;;;;;5077052;28;20031;-83
2023/10/21 01:19:13;;;;;;;0.17;0.17;;;;;;;;;;5080130;28;20095;-83
2023/10/21 01:21:39;;;;;;;0.47;0.32;;;;;;;;;;5073878;28;20046;-84
2023/10/21 01:24:05;;;;;;;0.98;0.40;;;;;;;;;;5073703;28;20531;-83
2023/10/21 01:26:30;;;;;;;0.10;0.10;;;;;;;;;;5071911;28;20031;-83
2023/10/21 01:28:55;;;;;;;0.13;0.13;;;;;;;;;;5073313;28;20442;-83
2023/10/21 01:31:21;;;;;;;1.20;0.30;;;;;;;;;;5074882;28;20107;-83
2023/10/21 01:33:47;;;;;;;0.47;0.45;;;;;;;;;;5073577;28;20016;-83
2023/10/21 01:36:12;;;;;;;0.10;0.10;;;;;;;;;;5074869;28;20020;-83
2023/10/21 01:38:38;;;;;;;0.50;0.50;;;;;;;;;;5072409;28;20035;-83
2023/10/21 01:41:04;;;;;;;0.20;0.20;;;;;;;;;;5074794;28;20032;-83
2023/10/21 01:43:29;;;;;;;0.22;0.22;;;;;;;;;;5074305;28;20449;-83
2023/10/21 01:45:54;;;;;;;0.20;0.20;;;;;;;;;;5074101;28;20029;-83
2023/10/21 01:48:20;;;;;;;0.35;0.30;;;;;;;;;;5059508;28;20028;-84
2023/10/21 01:50:45;;;;;;;0.28;0.28;;;;;;;;;;5071690;28;20067;-83
2023/10/21 01:53:11;;;;;;;0.22;0.22;;;;;;;;;;5077414;28;20081;-83
2023/10/21 01:55:37;;;;;;;0.13;0.13;;;;;;;;;;5077455;28;20027;-83
2023/10/21 01:58:02;;;;;;;0.10;0.10;;;;;;;;;;5072537;28;20032;-83
2023/10/21 02:00:28;;;;;;;0.15;0.15;;;;;;;;;;5076839;28;20033;-83
2023/10/21 02:02:55;;;;;;;1.08;0.32;;;;;;;;;;5072806;28;20068;-83
2023/10/21 02:05:22;;;;;;;0.55;0.55;;;;;;;;;;5073752;28;20035;-83
2023/10/21 02:07:48;;;;;;;0.43;0.20;;;;;;;;;;5073632;28;20096;-83
2023/10/21 02:10:13;;;;;;;0.20;0.20;;;;;;;;;;5076052;28;20060;-84
2023/10/21 02:12:39;;;;;;;0.20;0.20;;;;;;;;;;5080452;28;20541;-82
2023/10/21 02:15:17;;;;;;;0.70;0.30;;;;;;;;;;5074371;28;20036;-83
2023/10/21 02:17:44;;;;;;;0.10;0.10;;;;;;;;;;5075600;28;20025;-83
2023/10/21 02:20:12;;;;;;;0.40;0.20;;;;;;;;;;5075415;28;20020;-83
2023/10/21 02:22:37;;;;;;;0.40;0.20;;;;;;;;;;5073509;28;20115;-82
2023/10/21 02:25:03;;;;;;;0.20;0.20;;;;;;;;;;5085740;28;20138;-83
2023/10/21 02:27:28;;;;;;;0.17;0.17;;;;;;;;;;5081037;28;20379;-83
2023/10/21 02:29:54;;;;;;;0.15;0.10;;;;;;;;;;5080414;28;20142;-83
2023/10/21 02:32:19;;;;;;;0.30;0.30;;;;;;;;;;5078612;28;20024;-83
2023/10/21 02:34:44;;;;;;;0.10;0.10;;;;;;;;;;5075344;28;20032;-83
2023/10/21 02:37:11;;;;;;;0.35;0.15;;;;;;;;;;5078496;28;20498;-83
2023/10/21 02:39:37;;;;;;;0.20;0.20;;;;;;;;;;5069171;28;20060;-83
2023/10/21 02:42:03;;;;;;;0.10;0.10;;;;;;;;;;5080042;28;20210;-83
2023/10/21 02:44:29;;;;;;;0.10;0.10;;;;;;;;;;5079425;28;20092;-83
2023/10/21 02:46:54;;;;;;;0.10;0.10;;;;;;;;;;5077697;28;20017;-83
2023/10/21 02:49:20;;;;;;;0.20;0.20;;;;;;;;;;5079881;28;20048;-83
2023/10/21 02:51:45;;;;;;;0.20;0.20;;;;;;;;;;5080465;28;20029;-83
2023/10/21 02:54:10;;;;;;;0.10;0.10;;;;;;;;;;5077612;28;20055;-83
2023/10/21 02:56:36;;;;;;;0.10;0.10;;;;;;;;;;5077171;28;20017;-83
2023/10/21 02:59:02;;;;;;;1.70;0.55;;;;;;;;;;5090049;28;20025;-83
2023/10/21 03:01:28;;;;;;;0.25;0.25;;;;;;;;;;5079294;28;20372;-83
2023/10/21 03:03:53;;;;;;;1.20;0.38;;;;;;;;;;5079250;28;20039;-82
2023/10/21 03:06:21;;;;;;;0.55;0.20;;;;;;;;;;5078495;28;20028;-83
2023/10/21 03:08:47;;;;;;;0.20;0.20;;;;;;;;;;5078182;28;20081;-83
2023/10/21 03:11:12;;;;;;;0.20;0.20;;;;;;;;;;5078352;28;20021;-82
2023/10/21 03:13:38;;;;;;;1.42;0.55;;;;;;;;;;5085213;28;20036;-83
2023/10/21 03:16:22;;;;;;;0.00;0.00;;;;;;;;;;5076961;28;20491;-83
2023/10/21 03:18:47;;;;;;;0.30;0.30;;;;;;;;;;5076816;28;20036;-83
2023/10/21 03:21:13;;;;;;;0.15;0.15;;;;;;;;;;5077970;28;20035;-83
2023/10/21 03:23:38;;;;;;;0.22;0.10;;;;;;;;;;5077389;28;20037;-82
2023/10/21 03:26:05;;;;;;;0.10;0.10;;;;;;;;;;5076882;28;20028;-83
2023/10/21 03:28:30;;;;;;;0.70;0.30;;;;;;;;;;5081694;28;20051;-83
2023/10/21 03:30:56;;;;;;;0.10;0.10;;;;;;;;;;5077160;28;20032;-83
2023/10/21 03:33:23;;;;;;;0.10;0.10;;;;;;;;;;5075444;28;20039;-83
2023/10/21 03:36:07;;;;;;;0.30;0.20;;;;;;;;;;5077254;28;20426;-83
2023/10/21 03:38:32;;;;;;;0.10;0.10;;;;;;;;;;5077615;28;20086;-82
2023/10/21 03:41:07;;;;;;;0.40;0.40;;;;;;;;;;5078794;28;20111;-83
2023/10/21 03:43:34;;;;;;;0.20;0.20;;;;;;;;;;5079159;28;20025;-83
2023/10/21 03:46:14;;;;;;;1.00;0.30;;;;;;;;;;5078083;28;20069;-83
2023/10/21 03:48:40;;;;;;;0.88;0.43;;;;;;;;;;5075361;28;20483;-83
2023/10/21 03:51:10;;;;;;;0.30;0.30;;;;;;;;;;5076894;28;20051;-83
2023/10/21 03:53:35;;;;;;;0.20;0.20;;;;;;;;;;5069104;28;20021;-83
2023/10/21 03:56:02;;;;;;;0.30;0.30;;;;;;;;;;5068547;28;20021;-83
2023/10/21 03:58:28;;;;;;;0.47;0.25;;;;;;;;;;5076995;28;20027;-85
2023/10/21 04:00:59;;;;;;;0.15;0.15;;;;;;;;;;5078565;28;20024;-84
2023/10/21 04:03:26;;;;;;;0.20;0.20;;;;;;;;;;5077520;28;20401;-84
2023/10/21 04:05:55;;;;;;;0.20;0.20;;;;;;;;;;5073402;28;20285;-83
2023/10/21 04:08:21;;;;;;;0.52;0.30;;;;;;;;;;5082219;28;20020;-84
2023/10/21 04:10:47;;;;;;;0.30;0.30;;;;;;;;;;5078230;28;20027;-83
2023/10/21 04:13:12;;;;;;;0.40;0.40;;;;;;;;;;5075406;28;20084;-84
2023/10/21 04:15:38;;;;;;;0.43;0.43;;;;;;;;;;5076761;28;20024;-83
2023/10/21 04:18:03;;;;;;;0.40;0.40;;;;;;;;;;5076498;28;20379;-83
2023/10/21 04:20:31;;;;;;;0.52;0.35;;;;;;;;;;5068554;28;20027;-83
2023/10/21 04:22:56;;;;;;;0.25;0.22;;;;;;;;;;5074842;28;20037;-83
2023/10/21 04:25:22;;;;;;;0.28;0.28;;;;;;;;;;5074530;28;20533;-83
2023/10/21 04:27:47;;;;;;;0.30;0.30;;;;;;;;;;5075843;28;20052;-84
2023/10/21 04:30:13;;;;;;;0.63;0.20;;;;;;;;;;5083300;28;20012;-83
2023/10/21 04:32:38;;;;;;;0.30;0.30;;;;;;;;;;5080030;28;20020;-84
2023/10/21 04:35:04;;;;;;;0.30;0.30;;;;;;;;;;5075134;28;20048;-84
2023/10/21 04:37:31;;;;;;;0.17;0.17;;;;;;;;;;5074197;28;20047;-84
2023/10/21 04:39:56;;;;;;;0.10;0.10;;;;;;;;;;5074816;28;20040;-83
2023/10/21 04:42:23;;;;;;;0.43;0.43;;;;;;;;;;5072532;28;20043;-83
2023/10/21 04:44:48;;;;;;;0.28;0.28;;;;;;;;;;5074617;28;20264;-83
2023/10/21 04:47:15;;;;;;;0.10;0.10;;;;;;;;;;5067062;28;20370;-83
2023/10/21 04:49:44;;;;;;;1.92;0.20;;;;;;;;;;5074076;28;20059;-83
2023/10/21 04:52:14;;;;;;;2.58;0.50;;;;;;;;;;5067576;28;20044;-83
2023/10/21 04:54:41;;;;;;;0.55;0.55;;;;;;;;;;5067308;28;20483;-83
2023/10/21 04:57:07;;;;;;;0.40;0.30;;;;;;;;;;5075221;28;20032;-84
2023/10/21 04:59:33;;;;;;;0.20;0.20;;;;;;;;;;5077550;28;20033;-83
2023/10/21 05:01:58;;;;;;;0.90;0.40;;;;;;;;;;5075816;28;20032;-83
2023/10/21 05:04:24;;;;;;;2.30;0.47;;;;;;;;;;5076012;28;20029;-84
2023/10/21 05:06:49;;;;;;;0.20;0.20;;;;;;;;;;5074688;28;20016;-83
2023/10/21 05:09:16;;;;;;;0.30;0.30;;;;;;;;;;5075436;28;20020;-83
2023/10/21 05:11:41;;;;;;;0.20;0.20;;;;;;;;;;5075536;28;20034;-83
2023/10/21 05:14:06;;;;;;;0.60;0.47;;;;;;;;;;5070995;28;20108;-83
2023/10/21 05:16:32;;;;;;;1.40;0.40;;;;;;;;;;5071506;28;20021;-84
2023/10/21 05:18:57;;;;;;;1.55;0.30;;;;;;;;;;5076131;28;20036;-84
2023/10/21 05:21:22;;;;;;;0.30;0.30;;;;;;;;;;5075325;28;20032;-84
2023/10/21 05:23:48;;;;;;;0.40;0.38;;;;;;;;;;5079601;28;20032;-83
2023/10/21 05:26:13;;;;;;;0.20;0.20;;;;;;;;;;5074171;28;20044;-84
2023/10/21 05:28:39;;;;;;;0.20;0.20;;;;;;;;;;5075799;28;20048;-83
2023/10/21 05:31:04;;;;;;;0.40;0.40;;;;;;;;;;5073625;28;20024;-84
2023/10/21 05:33:30;;;;;;;0.75;0.35;;;;;;;;;;5074234;28;20425;-84
2023/10/21 05:35:59;;;;;;;0.55;0.30;;;;;;;;;;5073227;28;20028;-84
2023/10/21 05:38:25;;;;;;;0.43;0.43;;;;;;;;;;5073640;28;20016;-84
2023/10/21 05:40:50;;;;;;;0.20;0.20;;;;;;;;;;5067340;28;20024;-84
2023/10/21 05:43:16;;;;;;;0.20;0.20;;;;;;;;;;5081508;28;20066;-83
2023/10/21 05:45:43;;;;;;;0.30;0.28;;;;;;;;;;5077314;28;20027;-84
2023/10/21 05:48:09;;;;;;;0.20;0.20;;;;;;;;;;5067894;28;20028;-83
2023/10/21 05:50:35;;;;;;;0.75;0.35;;;;;;;;;;5074177;28;20028;-83
2023/10/21 05:53:00;;;;;;;0.20;0.20;;;;;;;;;;5074160;28;20028;-84
2023/10/21 05:55:26;;;;;;;0.08;0.08;;;;;;;;;;5066457;28;20099;-84
2023/10/21 05:57:51;;;;;;;0.30;0.30;;;;;;;;;;5072421;28;20024;-84
2023/10/21 06:00:17;;;;;;;0.25;0.25;;;;;;;;;;5075952;28;20031;-83
2023/10/21 06:02:42;;;;;;;0.90;0.32;;;;;;;;;;5074549;28;20031;-83
2023/10/21 06:05:08;;;;;;;0.20;0.20;;;;;;;;;;5075688;28;20051;-83
2023/10/21 06:07:33;;;;;;;0.52;0.20;;;;;;;;;;5074689;28;20019;-83
2023/10/21 06:09:59;;;;;;;0.75;0.30;;;;;;;;;;5073741;28;20025;-84
2023/10/21 06:12:25;;;;;;;0.20;0.20;;;;;;;;;;5074433;28;20046;-84
2023/10/21 06:14:51;;;;;;;1.88;0.30;;;;;;;;;;5073703;28;20027;-84
2023/10/21 06:17:16;;;;;;;0.30;0.30;;;;;;;;;;5072096;28;20158;-84
2023/10/21 06:19:44;;;;;;;0.20;0.20;;;;;;;;;;5074043;28;20016;-84
2023/10/21 06:22:09;;;;;;;0.30;0.30;;;;;;;;;;5072612;28;20021;-84
2023/10/21 06:24:34;;;;;;;0.20;0.20;;;;;;;;;;5073991;28;20667;-84
2023/10/21 06:27:01;;;;;;;0.10;0.10;;;;;;;;;;5073582;28;20091;-85
2023/10/21 06:29:26;;;;;;;0.20;0.20;;;;;;;;;;5072994;28;20155;-85
2023/10/21 06:31:52;;;;;;;0.15;0.13;;;;;;;;;;5080575;28;20447;-86
2023/10/21 06:34:17;;;;;;;0.40;0.40;;;;;;;;;;5075296;28;20024;-86
2023/10/21 06:36:42;;;;;;;0.95;0.50;;;;;;;;;;5074553;28;20060;-85
2023/10/21 06:39:08;;;;;;;1.40;0.40;;;;;;;;;;5073823;28;20029;-85
2023/10/21 06:41:33;;;;;;;0.30;0.30;;;;;;;;;;5074521;28;20080;-85
2023/10/21 06:43:59;;;;;;;0.50;0.32;;;;;;;;;;5076581;28;20032;-86
2023/10/21 06:46:25;;;;;;;0.30;0.30;;;;;;;;;;5073317;28;20291;-86
2023/10/21 06:48:50;;;;;;;0.30;0.30;;;;;;;;;;5073482;28;20024;-86
2023/10/21 06:51:17;;;;;;;0.43;0.30;;;;;;;;;;5075225;28;20020;-83
2023/10/21 06:53:42;;;;;;;0.50;0.50;;;;;;;;;;5076188;28;20035;-86
2023/10/21 06:56:12;;;;;;;0.47;0.43;;;;;;;;;;5073615;28;20567;-86
2023/10/21 06:58:41;;;;;;;0.32;0.32;;;;;;;;;;5075589;28;20519;-86
2023/10/21 07:01:07;;;;;;;0.43;0.30;;;;;;;;;;5075732;28;20029;-85
2023/10/21 07:03:32;;;;;;;0.63;0.40;;;;;;;;;;5075890;28;20024;-84
2023/10/21 07:05:58;;;;;;;0.20;0.20;;;;;;;;;;5074959;28;20032;-86
2023/10/21 07:08:23;;;;;;;0.45;0.32;;;;;;;;;;5071268;28;20025;-86
2023/10/21 07:10:51;;;;;;;0.20;0.20;;;;;;;;;;5075366;28;20360;-85
2023/10/21 07:13:17;;;;;;;0.17;0.17;;;;;;;;;;5075945;28;20495;-86
2023/10/21 07:15:42;;;;;;;0.28;0.28;;;;;;;;;;5075688;28;20032;-85
2023/10/21 07:18:08;;;;;;;0.30;0.30;;;;;;;;;;5084311;28;20035;-85
2023/10/21 07:20:34;;;;;;;1.23;0.25;;;;;;;;;;5076807;28;20033;-85
2023/10/21 07:22:59;;;;;;;0.38;0.38;;;;;;;;;;5066879;28;20547;-85
2023/10/21 07:25:24;;;;;;;0.55;0.40;;;;;;;;;;5075637;28;20124;-85
2023/10/21 07:27:50;;;;;;;0.30;0.30;;;;;;;;;;5078051;28;20044;-85
2023/10/21 07:30:15;;;;;;;0.47;0.47;;;;;;;;;;5071831;28;20211;-86
2023/10/21 07:32:41;;;;;;;0.38;0.35;;;;;;;;;;5075953;28;20127;-86
2023/10/21 07:35:07;;;;;;;0.45;0.32;;;;;;;;;;5084867;28;20059;-85
2023/10/21 07:37:32;;;;;;;1.08;0.32;;;;;;;;;;5077900;28;20089;-85
2023/10/21 07:39:58;;;;;;;0.10;0.10;;;;;;;;;;5078817;28;20115;-87
2023/10/21 07:42:24;;;;;;;0.20;0.20;;;;;;;;;;5078861;28;20035;-85
2023/10/21 07:44:49;;;;;;;1.25;0.30;;;;;;;;;;5077217;28;20025;-85
2023/10/21 07:47:15;;;;;;;0.22;0.22;;;;;;;;;;5080142;28;20364;-85
2023/10/21 07:49:40;;;;;;;0.25;0.15;;;;;;;;;;5083292;28;20051;-85
2023/10/21 07:52:06;;;;;;;0.20;0.20;;;;;;;;;;5085521;28;20024;-85
2023/10/21 07:54:31;;;;;;;0.08;0.08;;;;;;;;;;5076156;28;20417;-85
2023/10/21 07:56:56;;;;;;;3.63;0.45;;;;;;;;;;5065151;28;20393;-85
2023/10/21 07:59:22;;;;;;;0.20;0.20;;;;;;;;;;5081612;28;20020;-85
2023/10/21 08:01:48;;;;;;;0.22;0.22;;;;;;;;;;5077402;28;20029;-84
2023/10/21 08:04:14;;;;;;;0.22;0.20;;;;;;;;;;5076708;28;20625;-84
2023/10/21 08:06:41;;;;;;;0.28;0.28;;;;;;;;;;5069244;28;20028;-84
2023/10/21 08:09:08;;;;;;;0.68;0.40;;;;;;;;;;5076780;28;20020;-85
2023/10/21 08:11:33;;;;;;;0.40;0.20;;;;;;;;;;5077633;28;20035;-85
2023/10/21 08:13:58;;;;;;;0.63;0.30;;;;;;;;;;5073937;28;20028;-85
2023/10/21 08:16:24;;;;;;;0.10;0.10;;;;;;;;;;5077010;28;20032;-85
2023/10/21 08:18:50;;;;;;;0.60;0.35;;;;;;;;;;5084528;28;20025;-85
2023/10/21 08:21:16;;;;;;;0.65;0.60;;;;;;;;;;5066618;28;20036;-85
2023/10/21 08:23:41;;;;;;;0.15;0.15;;;;;;;;;;5074694;28;20029;-85
2023/10/21 08:26:07;;;;;;;0.75;0.50;;;;;;;;;;5065384;28;20048;-85
2023/10/21 08:28:32;;;;;;;0.20;0.20;;;;;;;;;;5077731;28;20028;-85
2023/10/21 08:30:57;;;;;;;0.30;0.30;;;;;;;;;;5082182;28;20115;-85
2023/10/21 08:33:23;;;;;;;0.10;0.10;;;;;;;;;;5089479;28;20024;-85
2023/10/21 08:35:48;;;;;;;0.17;0.13;;;;;;;;;;5093455;28;20063;-84
2023/10/21 08:38:13;;;;;;;0.60;0.25;;;;;;;;;;5091948;28;20557;-85
2023/10/21 08:40:41;;;;;;;0.63;0.40;;;;;;;;;;5081505;28;20040;-85
2023/10/21 08:43:08;;;;;;;0.25;0.13;;;;;;;;;;5073708;28;20387;-85
2023/10/21 08:45:35;;;;;;;0.17;0.17;;;;;;;;;;5072857;28;20025;-85
2023/10/21 08:48:10;;;;;;;0.60;0.30;;;;;;;;;;5074809;28;20039;-85
2023/10/21 08:50:36;;;;;;;1.23;0.63;;;;;;;;;;5072931;28;20045;-85
2023/10/21 08:53:05;;;;;;;0.10;0.10;;;;;;;;;;5068418;28;20076;-84
2023/10/21 08:55:32;;;;;;;1.48;0.50;;;;;;;;;;5074746;28;20045;-85
2023/10/21 08:57:57;;;;;;;0.10;0.10;;;;;;;;;;5073471;28;20074;-85
2023/10/21 09:00:23;;;;;;;0.32;0.32;;;;;;;;;;5079033;28;20040;-84
2023/10/21 09:02:48;;;;;;;0.30;0.10;;;;;;;;;;5080444;28;20036;-85
2023/10/21 09:05:14;;;;;;;1.88;0.20;;;;;;;;;;5086126;28;20063;-85
2023/10/21 09:07:47;;;;;;;0.52;0.32;;;;;;;;;;5072076;28;20399;-85
2023/10/21 09:10:13;;;;;;;0.10;0.10;;;;;;;;;;5076621;28;20572;-85
2023/10/21 09:12:39;;;;;;;2.30;0.20;;;;;;;;;;5072313;28;20052;-85
2023/10/21 09:15:05;;;;;;;0.13;0.13;;;;;;;;;;5071126;28;20036;-85
2023/10/21 09:17:44;;;;;;;0.10;0.10;;;;;;;;;;5068779;28;20033;-85
2023/10/21 09:20:19;;;;;;;0.55;0.17;;;;;;;;;;5072604;28;20027;-85
2023/10/21 09:22:49;;;;;;;0.15;0.15;;;;;;;;;;5076052;28;20067;-85
2023/10/21 09:25:21;;;;;;;0.40;0.20;;;;;;;;;;5069776;28;20131;-85
2023/10/21 09:27:58;;;;;;;0.10;0.10;;;;;;;;;;5071099;28;20056;-85
2023/10/21 09:30:26;;;;;;;0.40;0.30;;;;;;;;;;5071430;28;20025;-85
2023/10/21 09:33:00;;;;;;;0.30;0.30;;;;;;;;;;5070432;28;20031;-85
2023/10/21 09:35:27;;;;;;;0.43;0.28;;;;;;;;;;5066223;28;20019;-85
2023/10/21 09:37:53;;;;;;;0.45;0.10;;;;;;;;;;5069916;28;20077;-85
2023/10/21 09:40:20;;;;;;;3.60;0.40;;;;;;;;;;5069452;28;20028;-85
2023/10/21 09:42:48;;;;;;;1.85;0.20;;;;;;;;;;5071510;28;20062;-85
2023/10/21 09:45:17;;;;;;;0.32;0.30;;;;;;;;;;5072829;28;20028;-85
2023/10/21 09:47:43;;;;;;;0.77;0.50;;;;;;;;;;5072537;28;20046;-85
2023/10/21 09:50:13;;;;;;;1.40;0.57;;;;;;;;;;5063652;28;20032;-87
2023/10/21 09:52:54;;;;;;;0.20;0.20;;;;;;;;;;5069702;28;20076;-85
2023/10/21 09:55:24;;;;;;;0.40;0.35;;;;;;;;;;5068735;28;20032;-85
2023/10/21 09:57:53;;;;;;;4.68;1.63;;;;;;;;;;5071309;28;20028;-87
2023/10/21 10:00:19;;;;;;;1.45;1.08;;;;;;;;;;5071433;28;20016;-85
2023/10/21 10:02:49;;;;;;;1.38;0.82;;;;;;;;;;5071274;28;20092;-85
2023/10/21 10:05:17;;;;;;;0.60;0.35;;;;;;;;;;5068130;28;20515;-85
2023/10/21 10:07:45;;;;;;;0.70;0.10;;;;;;;;;;5070403;28;20048;-87
2023/10/21 10:10:13;;;;;;;0.32;0.22;;;;;;;;;;5070419;28;20029;-85
2023/10/21 10:13:06;;;;;;;0.45;0.30;;;;;;;;;;5072550;28;20024;-86
2023/10/21 10:15:42;;;;;;;1.10;0.30;;;;;;;;;;5085789;28;20094;-85
2023/10/21 10:18:18;;;;;;;0.20;0.20;;;;;;;;;;5067658;28;20032;-85
2023/10/21 10:20:45;;;;;;;0.43;0.35;;;;;;;;;;5070388;28;20468;-86
2023/10/21 10:23:12;;;;;;;0.10;0.10;;;;;;;;;;5074441;28;20051;-86
2023/10/21 10:25:39;;;;;;;0.45;0.20;;;;;;;;;;5070788;28;20028;-86
2023/10/21 10:28:08;;;;;;;0.47;0.38;;;;;;;;;;5081923;28;20020;-86
2023/10/21 10:30:43;;;;;;;0.43;0.30;;;;;;;;;;5074029;28;20112;-86
2023/10/21 10:33:15;;;;;;;0.10;0.10;;;;;;;;;;5074227;28;20123;-86
2023/10/21 10:35:51;;;;;;;;;;;;;;;;;;5076761;28;20044;-86
2023/10/21 10:38:20;;;;;;;0.90;0.17;;;;;;;;;;5087264;28;19922;-85
2023/10/21 10:40:47;;;;;;;1.55;0.20;;;;;;;;;;5086323;28;20056;-86
2023/10/21 10:43:13;;;;;;;0.17;0.17;;;;;;;;;;5074896;28;20024;-86
2023/10/21 10:45:40;;;;;;;1.08;0.30;;;;;;;;;;5074094;28;20020;-86
2023/10/21 10:48:09;;;;;;;0.20;0.20;;;;;;;;;;5074856;28;20391;-86
2023/10/21 10:50:38;;;;;;;0.22;0.22;;;;;;;;;;5080924;28;20028;-86
2023/10/21 10:53:13;;;;;;;0.28;0.28;;;;;;;;;;5070220;28;20051;-85
2023/10/21 10:55:41;;;;;;;0.20;0.20;;;;;;;;;;5073844;28;20043;-86
2023/10/21 10:58:06;;;;;;;1.17;0.15;;;;;;;;;;5076080;28;20051;-85
2023/10/21 11:00:32;;;;;;;0.57;0.30;;;;;;;;;;5074691;28;20471;-85
2023/10/21 11:02:57;;;;;;;1.85;0.40;;;;;;;;;;5075391;28;20203;-86
2023/10/21 11:05:23;;;;;;;1.00;0.52;;;;;;;;;;5074037;28;20452;-85
2023/10/21 11:07:50;;;;;;;0.32;0.30;;;;;;;;;;5069231;28;20035;-86
2023/10/21 11:10:22;;;;;;;0.10;0.10;;;;;;;;;;5072454;28;20458;-85
2023/10/21 11:12:57;;;;;;;0.32;0.32;;;;;;;;;;5074672;28;20055;-86
2023/10/21 11:15:23;;;;;;;1.35;0.43;;;;;;;;;;5074565;28;20539;-86
2023/10/21 11:17:51;;;;;;;0.75;0.35;;;;;;;;;;5074729;28;20128;-85
2023/10/21 11:20:17;;;;;;;0.45;0.28;;;;;;;;;;5072619;28;20048;-85
2023/10/21 11:22:42;;;;;;;0.65;0.10;;;;;;;;;;5073259;28;20047;-86
2023/10/21 11:25:08;;;;;;;0.20;0.20;;;;;;;;;;5071284;28;20033;-85
2023/10/21 11:27:36;;;;;;;0.30;0.30;;;;;;;;;;5072977;28;20023;-86
2023/10/21 11:30:07;;;;;;;0.52;0.32;;;;;;;;;;5077371;28;20028;-85
2023/10/21 11:32:34;;;;;;;0.55;0.45;;;;;;;;;;5065383;28;20379;-86
2023/10/21 11:35:09;;;;;;;0.25;0.25;;;;;;;;;;5072887;28;20036;-86
2023/10/21 11:37:38;;;;;;;0.15;0.15;;;;;;;;;;5069661;28;20441;-86
2023/10/21 11:40:03;;;;;;;2.05;0.50;;;;;;;;;;5073998;28;20572;-85
2023/10/21 11:42:29;;;;;;;2.72;0.57;;;;;;;;;;5069940;28;20032;-86
2023/10/21 11:44:59;;;;;;;2.30;0.28;;;;;;;;;;5074680;28;20069;-86
2023/10/21 11:47:31;;;;;;;0.55;0.30;;;;;;;;;;5073285;28;20008;-86
2023/10/21 11:49:57;;;;;;;0.20;0.20;;;;;;;;;;5076410;28;20108;-86
2023/10/21 11:52:25;;;;;;;0.40;0.38;;;;;;;;;;5075127;28;20446;-86
2023/10/21 12:06:08;;;;;;;0.45;0.35;;;;;;;;;;5067425;28;20035;-86
2023/10/21 12:16:58;;;;;;;0.28;0.10;;;;;;;;;;5075309;28;20039;-86
2023/10/21 12:33:19;;;;;;;0.60;0.20;;;;;;;;;;5086619;22;20049;-87
2023/10/21 12:35:52;;;;;;;0.35;0.30;;;;;;;;;;5066012;28;20535;-86
2023/10/21 12:38:22;;;;;;;0.50;0.30;;;;;;;;;;5087573;28;20032;-86
2023/10/21 12:43:49;;;;;;;0.68;0.28;;;;;;;;;;5035358;28;20119;-87
2023/10/21 12:46:30;;;;;;;0.20;0.20;;;;;;;;;;5043191;28;20103;-86
2023/10/21 12:48:57;;;;;;;0.30;0.30;;;;;;;;;;5082845;28;20013;-83
2023/10/21 12:51:23;;;;;;;0.30;0.30;;;;;;;;;;5080928;28;20044;-87
2023/10/21 12:53:49;;;;;;;0.85;0.35;;;;;;;;;;5071494;28;20020;-85
2023/10/21 12:56:15;;;;;;;7.82;0.52;;;;;;;;;;5047704;28;20017;-86
2023/10/21 12:58:41;;;;;;;1.55;0.25;;;;;;;;;;5069121;28;20598;-86
2023/10/21 13:01:12;;;;;;;1.08;0.30;;;;;;;;;;5052318;28;20024;-85
2023/10/21 13:03:38;;;;;;;0.20;0.20;;;;;;;;;;5070834;28;20085;-86
2023/10/21 13:06:06;;;;;;;0.38;0.30;;;;;;;;;;5061112;28;20033;-86
2023/10/21 13:08:33;;;;;;;0.10;0.10;;;;;;;;;;5067055;28;20029;-86
2023/10/21 13:10:59;;;;;;;1.42;0.47;;;;;;;;;;5062112;28;20051;-86
2023/10/21 13:13:37;;;;;;;1.95;0.40;;;;;;;;;;5073638;28;20024;-87
2023/10/21 13:16:03;;;;;;;0.20;0.20;;;;;;;;;;5074531;28;20031;-86
2023/10/21 13:18:29;;;;;;;1.17;0.50;;;;;;;;;;5051919;28;20051;-86
2023/10/21 13:20:55;;;;;;;0.90;0.50;;;;;;;;;;5061749;28;20029;-86
2023/10/21 13:23:20;;;;;;;0.85;0.38;;;;;;;;;;5048202;28;20028;-87
2023/10/21 13:25:45;;;;;;;0.20;0.20;;;;;;;;;;5072824;28;20029;-86
2023/10/21 13:28:11;;;;;;;0.47;0.20;;;;;;;;;;5056111;28;20036;-85
2023/10/21 13:30:37;;;;;;;0.10;0.10;;;;;;;;;;5090978;28;20028;-84
2023/10/21 13:33:04;;;;;;;0.47;0.38;;;;;;;;;;5063593;28;20025;-84
2023/10/21 13:35:30;;;;;;;0.20;0.20;;;;;;;;;;5053129;28;20040;-85
2023/10/21 13:37:55;;;;;;;0.30;0.30;;;;;;;;;;5068455;28;20474;-86
2023/10/21 13:40:21;;;;;;;0.65;0.38;;;;;;;;;;5083331;28;20108;-86
2023/10/21 13:42:49;;;;;;;0.40;0.35;;;;;;;;;;5050195;28;20081;-86
2023/10/21 13:45:21;;;;;;;0.50;0.17;;;;;;;;;;5065220;28;20046;-87
2023/10/21 13:47:52;;;;;;;0.20;0.20;;;;;;;;;;5072254;28;20020;-87
2023/10/21 13:50:19;;;;;;;0.43;0.43;;;;;;;;;;5070577;28;20040;-86
2023/10/21 13:52:45;;;;;;;0.60;0.40;;;;;;;;;;5075601;28;20253;-86
2023/10/21 13:55:14;;;;;;;0.43;0.40;;;;;;;;;;5075427;28;20035;-85
2023/10/21 13:57:45;;;;;;;0.30;0.30;;;;;;;;;;5064981;28;20037;-86
2023/10/21 14:00:31;;;;;;;0.30;0.30;;;;;;;;;;5072685;28;20036;-85
2023/10/21 14:02:59;;;;;;;2.05;0.75;;;;;;;;;;5076094;28;20025;-86
2023/10/21 14:05:26;;;;;;;0.45;0.35;;;;;;;;;;5060619;28;20044;-87
2023/10/21 14:07:51;;;;;;;1.55;0.47;;;;;;;;;;5076601;28;20020;-87
2023/10/21 14:10:17;;;;;;;0.52;0.38;;;;;;;;;;5056518;28;20030;-87
2023/10/21 14:12:43;;;;;;;0.73;0.38;;;;;;;;;;5069338;28;20103;-85
2023/10/21 14:15:10;;;;;;;2.83;0.35;;;;;;;;;;5059308;28;20115;-86
2023/10/21 14:17:36;;;;;;;1.85;0.30;;;;;;;;;;5073218;28;20074;-86
2023/10/21 14:20:04;;;;;;;0.35;0.35;;;;;;;;;;5063476;28;20032;-87
2023/10/21 14:22:30;;;;;;;0.88;0.20;;;;;;;;;;5048764;28;20035;-86
2023/10/21 14:24:55;;;;;;;0.15;0.15;;;;;;;;;;5081672;28;20085;-86
2023/10/21 14:27:21;;;;;;;0.20;0.20;;;;;;;;;;5078466;28;20422;-86
2023/10/21 14:29:46;;;;;;;0.20;0.20;;;;;;;;;;5080032;28;20033;-86
2023/10/21 14:32:13;;;;;;;0.20;0.20;;;;;;;;;;5084430;28;20393;-86
2023/10/21 14:34:38;;;;;;;3.00;0.60;;;;;;;;;;5053648;28;20400;-87
2023/10/21 14:37:05;;;;;;;0.30;0.30;;;;;;;;;;5068059;28;20439;-88
2023/10/21 14:39:33;;;;;;;0.40;0.20;;;;;;;;;;5048577;28;20033;-86
2023/10/21 14:41:59;;;;;;;0.45;0.32;;;;;;;;;;5083415;28;20028;-87
2023/10/21 14:44:24;;;;;;;0.38;0.28;;;;;;;;;;5081466;28;20041;-85
2023/10/21 14:46:49;;;;;;;0.43;0.30;;;;;;;;;;5088026;28;20083;-85
2023/10/21 14:49:15;;;;;;;1.23;0.55;;;;;;;;;;5091056;28;20039;-87
2023/10/21 14:51:40;;;;;;;1.05;0.50;;;;;;;;;;5094876;28;20473;-86
2023/10/21 14:54:06;;;;;;;1.70;0.50;;;;;;;;;;5093455;28;20179;-86
2023/10/21 14:56:31;;;;;;;0.60;0.40;;;;;;;;;;5081837;28;20039;-85
2023/10/21 14:58:57;;;;;;;1.35;0.68;;;;;;;;;;5072494;28;20035;-86
2023/10/21 15:01:22;;;;;;;2.78;0.38;;;;;;;;;;5065748;28;20031;-89
2023/10/21 15:03:47;;;;;;;0.43;0.43;;;;;;;;;;5088467;28;20024;-88
2023/10/21 15:06:13;;;;;;;0.20;0.20;;;;;;;;;;5089155;28;20040;-83
2023/10/21 15:08:41;;;;;;;1.75;0.60;;;;;;;;;;5081399;28;20029;-86
2023/10/21 15:11:12;;;;;;;0.45;0.30;;;;;;;;;;5086008;28;20025;-86
2023/10/21 15:13:37;;;;;;;0.30;0.30;;;;;;;;;;5067846;28;20053;-85
2023/10/21 15:16:04;;;;;;;0.40;0.40;;;;;;;;;;5086817;28;20071;-86
2023/10/21 15:18:30;;;;;;;0.60;0.60;;;;;;;;;;5106236;28;20198;-85